sensor_id;sensor_type;location;lat;lon;timestamp;temperature;humidity
35363;DHT22;21463;47.480;8.214;2024-01-06T00:00:36;20.90;38.70
35363;DHT22;21463;47.480;8.214;2024-01-06T00:01:39;20.80;38.60
35363;DHT22;21463;47.480;8.214;2024-01-06T00:02:42;20.80;38.60
35363;DHT22;21463;47.480;8.214;2024-01-06T00:03:47;20.80;38.60
35363;DHT22;21463;47.480;8.214;2024-01-06T00:04:50;20.80;38.60
35363;DHT22;21463;47.480;8.214;2024-01-06T00:05:53;20.80;38.60
35363;DHT22;21463;47.480;8.214;2024-01-06T00:06:55;20.80;38.60
35363;DHT22;21463;47.480;8.214;2024-01-06T00:08:00;20.80;38.60
35363;DHT22;21463;47.480;8.214;2024-01-06T00:09:08;20.80;38.60
35363;DHT22;21463;47.480;8.214;2024-01-06T00:10:14;20.70;38.60
35363;DHT22;21463;47.480;8.214;2024-01-06T00:11:20;20.80;38.60
35363;DHT22;21463;47.480;8.214;2024-01-06T00:12:23;20.80;38.60
35363;DHT22;21463;47.480;8.214;2024-01-06T00:13:26;20.80;38.70
35363;DHT22;21463;47.480;8.214;2024-01-06T00:14:31;20.80;38.70
35363;DHT22;21463;47.480;8.214;2024-01-06T00:15:34;20.80;38.70
35363;DHT22;21463;47.480;8.214;2024-01-06T00:16:37;20.80;38.70
35363;DHT22;21463;47.480;8.214;2024-01-06T00:17:40;20.80;38.70
35363;DHT22;21463;47.480;8.214;2024-01-06T00:18:42;20.80;38.70
35363;DHT22;21463;47.480;8.214;2024-01-06T00:19:46;20.80;38.70
35363;DHT22;21463;47.480;8.214;2024-01-06T00:20:53;20.80;38.70
35363;DHT22;21463;47.480;8.214;2024-01-06T00:21:56;20.80;38.70
35363;DHT22;21463;47.480;8.214;2024-01-06T00:22:58;20.80;38.70
35363;DHT22;21463;47.480;8.214;2024-01-06T00:24:01;20.80;38.70
35363;DHT22;21463;47.480;8.214;2024-01-06T00:25:05;20.80;38.70
35363;DHT22;21463;47.480;8.214;2024-01-06T00:26:10;20.80;38.70
35363;DHT22;21463;47.480;8.214;2024-01-06T00:27:12;20.80;38.70
35363;DHT22;21463;47.480;8.214;2024-01-06T00:28:29;20.80;38.70
35363;DHT22;21463;47.480;8.214;2024-01-06T00:29:35;20.80;38.70
35363;DHT22;21463;47.480;8.214;2024-01-06T00:30:40;20.80;38.70
35363;DHT22;21463;47.480;8.214;2024-01-06T00:31:45;20.80;38.70
35363;DHT22;21463;47.480;8.214;2024-01-06T00:32:52;20.80;38.70
35363;DHT22;21463;47.480;8.214;2024-01-06T00:33:56;20.80;38.70
35363;DHT22;21463;47.480;8.214;2024-01-06T00:35:03;20.80;38.80
35363;DHT22;21463;47.480;8.214;2024-01-06T00:36:07;20.80;38.70
35363;DHT22;21463;47.480;8.214;2024-01-06T00:37:10;20.80;38.80
35363;DHT22;21463;47.480;8.214;2024-01-06T00:38:12;20.80;38.80
35363;DHT22;21463;47.480;8.214;2024-01-06T00:39:15;20.80;38.80
35363;DHT22;21463;47.480;8.214;2024-01-06T00:40:18;20.80;38.80
35363;DHT22;21463;47.480;8.214;2024-01-06T00:41:22;20.80;38.80
35363;DHT22;21463;47.480;8.214;2024-01-06T00:42:24;20.80;38.80
35363;DHT22;21463;47.480;8.214;2024-01-06T00:43:27;20.80;38.80
35363;DHT22;21463;47.480;8.214;2024-01-06T00:44:30;20.80;38.80
35363;DHT22;21463;47.480;8.214;2024-01-06T00:45:33;20.80;38.80
35363;DHT22;21463;47.480;8.214;2024-01-06T00:46:39;20.80;38.80
35363;DHT22;21463;47.480;8.214;2024-01-06T00:47:42;20.80;38.80
35363;DHT22;21463;47.480;8.214;2024-01-06T00:48:44;20.80;38.80
35363;DHT22;21463;47.480;8.214;2024-01-06T00:49:47;20.80;38.80
35363;DHT22;21463;47.480;8.214;2024-01-06T00:50:50;20.80;38.80
35363;DHT22;21463;47.480;8.214;2024-01-06T00:51:53;20.80;38.80
35363;DHT22;21463;47.480;8.214;2024-01-06T00:52:55;20.80;38.80
35363;DHT22;21463;47.480;8.214;2024-01-06T00:53:58;20.80;38.80
35363;DHT22;21463;47.480;8.214;2024-01-06T00:55:01;20.80;38.80
35363;DHT22;21463;47.480;8.214;2024-01-06T00:56:04;20.80;38.80
35363;DHT22;21463;47.480;8.214;2024-01-06T00:57:07;20.80;38.80
35363;DHT22;21463;47.480;8.214;2024-01-06T00:58:12;20.80;38.80
35363;DHT22;21463;47.480;8.214;2024-01-06T00:59:15;20.80;38.80
35363;DHT22;21463;47.480;8.214;2024-01-06T01:00:18;20.80;38.80
35363;DHT22;21463;47.480;8.214;2024-01-06T01:01:20;20.80;38.90
35363;DHT22;21463;47.480;8.214;2024-01-06T01:02:23;20.80;38.80
35363;DHT22;21463;47.480;8.214;2024-01-06T01:03:26;20.80;38.90
35363;DHT22;21463;47.480;8.214;2024-01-06T01:04:30;20.80;38.90
35363;DHT22;21463;47.480;8.214;2024-01-06T01:05:32;20.80;38.90
35363;DHT22;21463;47.480;8.214;2024-01-06T01:06:37;20.80;38.90
35363;DHT22;21463;47.480;8.214;2024-01-06T01:07:39;20.70;38.80
35363;DHT22;21463;47.480;8.214;2024-01-06T01:08:42;20.80;38.90
35363;DHT22;21463;47.480;8.214;2024-01-06T01:09:45;20.80;38.90
35363;DHT22;21463;47.480;8.214;2024-01-06T01:10:50;20.80;38.90
35363;DHT22;21463;47.480;8.214;2024-01-06T01:11:53;20.80;38.90
35363;DHT22;21463;47.480;8.214;2024-01-06T01:12:55;20.80;38.90
35363;DHT22;21463;47.480;8.214;2024-01-06T01:13:58;20.80;39.00
35363;DHT22;21463;47.480;8.214;2024-01-06T01:15:03;20.80;39.00
35363;DHT22;21463;47.480;8.214;2024-01-06T01:16:06;20.80;38.90
35363;DHT22;21463;47.480;8.214;2024-01-06T01:17:09;20.80;39.00
35363;DHT22;21463;47.480;8.214;2024-01-06T01:18:11;20.80;39.00
35363;DHT22;21463;47.480;8.214;2024-01-06T01:19:15;20.80;39.00
35363;DHT22;21463;47.480;8.214;2024-01-06T01:20:18;20.80;39.00
35363;DHT22;21463;47.480;8.214;2024-01-06T01:21:20;20.80;39.00
35363;DHT22;21463;47.480;8.214;2024-01-06T01:22:23;20.80;39.00
35363;DHT22;21463;47.480;8.214;2024-01-06T01:23:26;20.80;39.00
35363;DHT22;21463;47.480;8.214;2024-01-06T01:24:31;20.80;39.00
35363;DHT22;21463;47.480;8.214;2024-01-06T01:25:34;20.80;39.00
35363;DHT22;21463;47.480;8.214;2024-01-06T01:26:37;20.80;39.00
35363;DHT22;21463;47.480;8.214;2024-01-06T01:27:39;20.80;39.00
35363;DHT22;21463;47.480;8.214;2024-01-06T01:28:42;20.80;39.00
35363;DHT22;21463;47.480;8.214;2024-01-06T01:29:45;20.80;39.00
35363;DHT22;21463;47.480;8.214;2024-01-06T01:30:47;20.80;39.00
35363;DHT22;21463;47.480;8.214;2024-01-06T01:31:50;20.80;39.00
35363;DHT22;21463;47.480;8.214;2024-01-06T01:32:53;20.90;39.10
35363;DHT22;21463;47.480;8.214;2024-01-06T01:33:56;20.80;39.10
35363;DHT22;21463;47.480;8.214;2024-01-06T01:35:01;20.80;39.00
35363;DHT22;21463;47.480;8.214;2024-01-06T01:36:04;20.80;39.00
35363;DHT22;21463;47.480;8.214;2024-01-06T01:37:07;20.80;39.00
35363;DHT22;21463;47.480;8.214;2024-01-06T01:38:10;20.80;39.10
35363;DHT22;21463;47.480;8.214;2024-01-06T01:39:12;20.80;39.00
35363;DHT22;21463;47.480;8.214;2024-01-06T01:40:15;20.80;39.10
35363;DHT22;21463;47.480;8.214;2024-01-06T01:41:18;20.80;39.10
35363;DHT22;21463;47.480;8.214;2024-01-06T01:42:24;20.80;39.10
35363;DHT22;21463;47.480;8.214;2024-01-06T01:43:26;20.80;39.10
35363;DHT22;21463;47.480;8.214;2024-01-06T01:44:31;20.80;39.10
35363;DHT22;21463;47.480;8.214;2024-01-06T01:45:33;20.80;39.10
35363;DHT22;21463;47.480;8.214;2024-01-06T01:46:36;20.80;39.10
35363;DHT22;21463;47.480;8.214;2024-01-06T01:47:40;20.80;39.10
35363;DHT22;21463;47.480;8.214;2024-01-06T01:48:43;20.80;39.10
35363;DHT22;21463;47.480;8.214;2024-01-06T01:49:46;20.80;39.10
35363;DHT22;21463;47.480;8.214;2024-01-06T01:50:51;20.80;39.10
35363;DHT22;21463;47.480;8.214;2024-01-06T01:51:54;20.80;39.10
35363;DHT22;21463;47.480;8.214;2024-01-06T01:52:57;20.90;39.20
35363;DHT22;21463;47.480;8.214;2024-01-06T01:54:01;20.80;39.10
35363;DHT22;21463;47.480;8.214;2024-01-06T01:55:07;20.80;39.10
35363;DHT22;21463;47.480;8.214;2024-01-06T01:56:12;20.80;39.10
35363;DHT22;21463;47.480;8.214;2024-01-06T01:57:15;20.80;39.10
35363;DHT22;21463;47.480;8.214;2024-01-06T01:58:18;20.90;39.20
35363;DHT22;21463;47.480;8.214;2024-01-06T01:59:21;20.80;39.10
35363;DHT22;21463;47.480;8.214;2024-01-06T02:00:24;20.80;39.70
35363;DHT22;21463;47.480;8.214;2024-01-06T02:01:29;20.80;39.20
35363;DHT22;21463;47.480;8.214;2024-01-06T02:02:32;20.80;39.20
35363;DHT22;21463;47.480;8.214;2024-01-06T02:03:35;20.80;39.20
35363;DHT22;21463;47.480;8.214;2024-01-06T02:04:38;20.80;39.20
35363;DHT22;21463;47.480;8.214;2024-01-06T02:05:41;20.80;39.20
35363;DHT22;21463;47.480;8.214;2024-01-06T02:06:43;20.80;39.20
35363;DHT22;21463;47.480;8.214;2024-01-06T02:07:47;20.80;39.20
35363;DHT22;21463;47.480;8.214;2024-01-06T02:08:50;20.70;39.20
35363;DHT22;21463;47.480;8.214;2024-01-06T02:09:52;20.80;39.20
35363;DHT22;21463;47.480;8.214;2024-01-06T02:10:55;20.80;39.20
35363;DHT22;21463;47.480;8.214;2024-01-06T02:11:58;20.80;39.20
35363;DHT22;21463;47.480;8.214;2024-01-06T02:13:11;20.80;39.20
35363;DHT22;21463;47.480;8.214;2024-01-06T02:14:14;20.80;39.20
35363;DHT22;21463;47.480;8.214;2024-01-06T02:15:16;20.80;39.20
35363;DHT22;21463;47.480;8.214;2024-01-06T02:16:19;20.80;39.30
35363;DHT22;21463;47.480;8.214;2024-01-06T02:17:21;20.80;39.30
35363;DHT22;21463;47.480;8.214;2024-01-06T02:18:24;20.80;39.30
35363;DHT22;21463;47.480;8.214;2024-01-06T02:19:27;20.80;39.30
35363;DHT22;21463;47.480;8.214;2024-01-06T02:20:31;20.80;39.30
35363;DHT22;21463;47.480;8.214;2024-01-06T02:21:35;20.80;39.30
35363;DHT22;21463;47.480;8.214;2024-01-06T02:22:40;20.80;39.30
35363;DHT22;21463;47.480;8.214;2024-01-06T02:23:47;20.80;39.30
35363;DHT22;21463;47.480;8.214;2024-01-06T02:24:50;20.80;39.30
35363;DHT22;21463;47.480;8.214;2024-01-06T02:25:52;20.80;39.30
35363;DHT22;21463;47.480;8.214;2024-01-06T02:26:55;20.80;39.30
35363;DHT22;21463;47.480;8.214;2024-01-06T02:27:57;20.80;39.30
35363;DHT22;21463;47.480;8.214;2024-01-06T02:29:00;20.80;39.30
35363;DHT22;21463;47.480;8.214;2024-01-06T02:30:04;20.70;39.30
35363;DHT22;21463;47.480;8.214;2024-01-06T02:31:10;20.80;39.30
35363;DHT22;21463;47.480;8.214;2024-01-06T02:32:12;20.80;39.30
35363;DHT22;21463;47.480;8.214;2024-01-06T02:33:15;20.80;39.30
35363;DHT22;21463;47.480;8.214;2024-01-06T02:34:18;20.80;39.30
35363;DHT22;21463;47.480;8.214;2024-01-06T02:35:21;20.80;39.30
35363;DHT22;21463;47.480;8.214;2024-01-06T02:36:23;20.70;39.30
35363;DHT22;21463;47.480;8.214;2024-01-06T02:37:26;20.80;39.40
35363;DHT22;21463;47.480;8.214;2024-01-06T02:38:35;20.80;39.40
35363;DHT22;21463;47.480;8.214;2024-01-06T02:39:39;20.80;39.40
35363;DHT22;21463;47.480;8.214;2024-01-06T02:40:42;20.80;39.30
35363;DHT22;21463;47.480;8.214;2024-01-06T02:41:45;20.80;39.40
35363;DHT22;21463;47.480;8.214;2024-01-06T02:42:47;20.80;39.40
35363;DHT22;21463;47.480;8.214;2024-01-06T02:43:50;20.80;39.40
35363;DHT22;21463;47.480;8.214;2024-01-06T02:44:53;20.70;39.30
35363;DHT22;21463;47.480;8.214;2024-01-06T02:45:57;20.80;39.40
35363;DHT22;21463;47.480;8.214;2024-01-06T02:46:59;20.80;39.40
35363;DHT22;21463;47.480;8.214;2024-01-06T02:48:02;20.80;39.40
35363;DHT22;21463;47.480;8.214;2024-01-06T02:49:04;20.80;39.40
35363;DHT22;21463;47.480;8.214;2024-01-06T02:50:10;20.80;39.40
35363;DHT22;21463;47.480;8.214;2024-01-06T02:51:13;20.80;39.40
35363;DHT22;21463;47.480;8.214;2024-01-06T02:52:15;20.80;39.40
35363;DHT22;21463;47.480;8.214;2024-01-06T02:53:18;20.80;39.40
35363;DHT22;21463;47.480;8.214;2024-01-06T02:54:21;20.80;39.40
35363;DHT22;21463;47.480;8.214;2024-01-06T02:55:26;20.80;39.40
35363;DHT22;21463;47.480;8.214;2024-01-06T02:56:31;20.80;39.40
35363;DHT22;21463;47.480;8.214;2024-01-06T02:57:33;20.90;39.50
35363;DHT22;21463;47.480;8.214;2024-01-06T02:58:36;20.80;39.40
35363;DHT22;21463;47.480;8.214;2024-01-06T02:59:39;20.80;39.40
35363;DHT22;21463;47.480;8.214;2024-01-06T03:00:41;20.80;39.40
35363;DHT22;21463;47.480;8.214;2024-01-06T03:01:44;20.80;39.50
35363;DHT22;21463;47.480;8.214;2024-01-06T03:02:47;20.80;39.50
35363;DHT22;21463;47.480;8.214;2024-01-06T03:03:49;20.90;39.50
35363;DHT22;21463;47.480;8.214;2024-01-06T03:04:52;20.80;39.40
35363;DHT22;21463;47.480;8.214;2024-01-06T03:05:55;20.80;39.50
35363;DHT22;21463;47.480;8.214;2024-01-06T03:07:03;20.80;39.50
35363;DHT22;21463;47.480;8.214;2024-01-06T03:08:06;20.80;39.50
35363;DHT22;21463;47.480;8.214;2024-01-06T03:09:09;20.80;39.50
35363;DHT22;21463;47.480;8.214;2024-01-06T03:10:14;20.80;39.50
35363;DHT22;21463;47.480;8.214;2024-01-06T03:11:17;20.80;39.50
35363;DHT22;21463;47.480;8.214;2024-01-06T03:12:20;20.80;39.50
35363;DHT22;21463;47.480;8.214;2024-01-06T03:13:22;20.80;39.50
35363;DHT22;21463;47.480;8.214;2024-01-06T03:14:25;20.80;39.50
35363;DHT22;21463;47.480;8.214;2024-01-06T03:15:27;20.80;39.50
35363;DHT22;21463;47.480;8.214;2024-01-06T03:16:32;20.80;39.50
35363;DHT22;21463;47.480;8.214;2024-01-06T03:17:36;20.70;39.50
35363;DHT22;21463;47.480;8.214;2024-01-06T03:18:38;20.80;39.50
35363;DHT22;21463;47.480;8.214;2024-01-06T03:19:44;20.80;39.50
35363;DHT22;21463;47.480;8.214;2024-01-06T03:20:47;20.80;39.50
35363;DHT22;21463;47.480;8.214;2024-01-06T03:21:49;20.80;39.50
35363;DHT22;21463;47.480;8.214;2024-01-06T03:22:52;20.80;39.50
35363;DHT22;21463;47.480;8.214;2024-01-06T03:23:55;20.90;39.60
35363;DHT22;21463;47.480;8.214;2024-01-06T03:24:57;20.80;39.50
35363;DHT22;21463;47.480;8.214;2024-01-06T03:26:05;20.90;39.60
35363;DHT22;21463;47.480;8.214;2024-01-06T03:27:08;20.80;39.50
35363;DHT22;21463;47.480;8.214;2024-01-06T03:28:14;20.80;39.60
35363;DHT22;21463;47.480;8.214;2024-01-06T03:29:16;20.80;39.60
35363;DHT22;21463;47.480;8.214;2024-01-06T03:30:19;20.80;39.60
35363;DHT22;21463;47.480;8.214;2024-01-06T03:31:22;20.80;39.60
35363;DHT22;21463;47.480;8.214;2024-01-06T03:32:25;20.80;39.60
35363;DHT22;21463;47.480;8.214;2024-01-06T03:33:27;20.80;39.60
35363;DHT22;21463;47.480;8.214;2024-01-06T03:34:33;20.80;39.60
35363;DHT22;21463;47.480;8.214;2024-01-06T03:35:36;20.80;39.60
35363;DHT22;21463;47.480;8.214;2024-01-06T03:36:39;20.80;39.60
35363;DHT22;21463;47.480;8.214;2024-01-06T03:37:45;20.80;39.60
35363;DHT22;21463;47.480;8.214;2024-01-06T03:38:47;20.80;39.60
35363;DHT22;21463;47.480;8.214;2024-01-06T03:39:50;20.90;39.70
35363;DHT22;21463;47.480;8.214;2024-01-06T03:40:52;20.80;39.60
35363;DHT22;21463;47.480;8.214;2024-01-06T03:41:55;20.80;39.60
35363;DHT22;21463;47.480;8.214;2024-01-06T03:42:57;20.80;39.60
35363;DHT22;21463;47.480;8.214;2024-01-06T03:44:00;20.80;39.60
35363;DHT22;21463;47.480;8.214;2024-01-06T03:45:06;20.80;39.70
35363;DHT22;21463;47.480;8.214;2024-01-06T03:46:09;20.80;39.60
35363;DHT22;21463;47.480;8.214;2024-01-06T03:47:12;20.80;39.60
35363;DHT22;21463;47.480;8.214;2024-01-06T03:48:14;20.80;39.60
35363;DHT22;21463;47.480;8.214;2024-01-06T03:49:17;20.80;39.60
35363;DHT22;21463;47.480;8.214;2024-01-06T03:50:23;20.80;39.60
35363;DHT22;21463;47.480;8.214;2024-01-06T03:51:25;20.80;39.70
35363;DHT22;21463;47.480;8.214;2024-01-06T03:52:28;20.80;39.70
35363;DHT22;21463;47.480;8.214;2024-01-06T03:53:32;20.80;39.70
35363;DHT22;21463;47.480;8.214;2024-01-06T03:54:35;20.80;39.70
35363;DHT22;21463;47.480;8.214;2024-01-06T03:55:37;20.80;39.70
35363;DHT22;21463;47.480;8.214;2024-01-06T03:56:41;20.80;39.70
35363;DHT22;21463;47.480;8.214;2024-01-06T03:57:45;20.80;39.70
35363;DHT22;21463;47.480;8.214;2024-01-06T03:58:49;20.80;39.70
35363;DHT22;21463;47.480;8.214;2024-01-06T03:59:52;20.80;39.70
35363;DHT22;21463;47.480;8.214;2024-01-06T04:00:54;20.80;39.70
35363;DHT22;21463;47.480;8.214;2024-01-06T04:01:57;20.80;39.70
35363;DHT22;21463;47.480;8.214;2024-01-06T04:03:00;20.80;39.70
35363;DHT22;21463;47.480;8.214;2024-01-06T04:04:03;20.70;39.60
35363;DHT22;21463;47.480;8.214;2024-01-06T04:05:06;20.80;39.70
35363;DHT22;21463;47.480;8.214;2024-01-06T04:06:09;20.80;39.70
35363;DHT22;21463;47.480;8.214;2024-01-06T04:07:12;20.80;40.30
35363;DHT22;21463;47.480;8.214;2024-01-06T04:08:14;20.80;39.70
35363;DHT22;21463;47.480;8.214;2024-01-06T04:09:17;20.80;39.70
35363;DHT22;21463;47.480;8.214;2024-01-06T04:10:20;20.80;39.70
35363;DHT22;21463;47.480;8.214;2024-01-06T04:11:23;20.80;39.70
35363;DHT22;21463;47.480;8.214;2024-01-06T04:12:26;20.80;39.70
35363;DHT22;21463;47.480;8.214;2024-01-06T04:13:29;20.80;39.70
35363;DHT22;21463;47.480;8.214;2024-01-06T04:14:31;20.80;39.80
35363;DHT22;21463;47.480;8.214;2024-01-06T04:15:34;20.80;39.80
35363;DHT22;21463;47.480;8.214;2024-01-06T04:16:36;20.80;39.80
35363;DHT22;21463;47.480;8.214;2024-01-06T04:17:39;20.80;39.70
35363;DHT22;21463;47.480;8.214;2024-01-06T04:18:44;20.80;40.30
35363;DHT22;21463;47.480;8.214;2024-01-06T04:19:48;20.80;39.70
35363;DHT22;21463;47.480;8.214;2024-01-06T04:20:51;20.80;39.70
35363;DHT22;21463;47.480;8.214;2024-01-06T04:21:56;20.80;39.80
35363;DHT22;21463;47.480;8.214;2024-01-06T04:22:59;20.80;39.70
35363;DHT22;21463;47.480;8.214;2024-01-06T04:24:02;20.80;39.80
35363;DHT22;21463;47.480;8.214;2024-01-06T04:25:04;20.80;39.80
35363;DHT22;21463;47.480;8.214;2024-01-06T04:26:07;20.80;39.70
35363;DHT22;21463;47.480;8.214;2024-01-06T04:27:10;20.90;39.80
35363;DHT22;21463;47.480;8.214;2024-01-06T04:28:12;20.80;39.80
35363;DHT22;21463;47.480;8.214;2024-01-06T04:29:15;20.80;39.80
35363;DHT22;21463;47.480;8.214;2024-01-06T04:30:20;20.80;39.80
35363;DHT22;21463;47.480;8.214;2024-01-06T04:31:23;20.80;39.80
35363;DHT22;21463;47.480;8.214;2024-01-06T04:32:26;20.80;39.80
35363;DHT22;21463;47.480;8.214;2024-01-06T04:33:29;20.80;39.80
35363;DHT22;21463;47.480;8.214;2024-01-06T04:34:32;20.80;39.80
35363;DHT22;21463;47.480;8.214;2024-01-06T04:35:34;20.80;40.40
35363;DHT22;21463;47.480;8.214;2024-01-06T04:36:37;20.80;39.80
35363;DHT22;21463;47.480;8.214;2024-01-06T04:37:40;20.80;39.80
35363;DHT22;21463;47.480;8.214;2024-01-06T04:38:42;20.80;39.80
35363;DHT22;21463;47.480;8.214;2024-01-06T04:39:45;20.80;39.80
35363;DHT22;21463;47.480;8.214;2024-01-06T04:40:47;20.80;39.80
35363;DHT22;21463;47.480;8.214;2024-01-06T04:41:52;20.80;39.80
35363;DHT22;21463;47.480;8.214;2024-01-06T04:42:55;20.80;39.80
35363;DHT22;21463;47.480;8.214;2024-01-06T04:43:59;20.80;39.80
35363;DHT22;21463;47.480;8.214;2024-01-06T04:45:01;20.80;39.80
35363;DHT22;21463;47.480;8.214;2024-01-06T04:46:05;20.80;39.80
35363;DHT22;21463;47.480;8.214;2024-01-06T04:47:07;20.80;39.80
35363;DHT22;21463;47.480;8.214;2024-01-06T04:48:10;20.80;39.80
35363;DHT22;21463;47.480;8.214;2024-01-06T04:49:15;20.80;39.80
35363;DHT22;21463;47.480;8.214;2024-01-06T04:50:18;20.80;39.80
35363;DHT22;21463;47.480;8.214;2024-01-06T04:51:24;20.80;39.80
35363;DHT22;21463;47.480;8.214;2024-01-06T04:52:29;20.80;40.40
35363;DHT22;21463;47.480;8.214;2024-01-06T04:53:32;20.80;39.80
35363;DHT22;21463;47.480;8.214;2024-01-06T04:54:35;20.80;39.80
35363;DHT22;21463;47.480;8.214;2024-01-06T04:55:38;20.90;39.80
35363;DHT22;21463;47.480;8.214;2024-01-06T04:56:40;20.80;39.80
35363;DHT22;21463;47.480;8.214;2024-01-06T04:57:43;20.80;39.80
35363;DHT22;21463;47.480;8.214;2024-01-06T04:58:46;20.80;39.80
35363;DHT22;21463;47.480;8.214;2024-01-06T04:59:48;20.80;39.80
35363;DHT22;21463;47.480;8.214;2024-01-06T05:00:51;20.80;39.80
35363;DHT22;21463;47.480;8.214;2024-01-06T05:01:57;20.80;39.80
35363;DHT22;21463;47.480;8.214;2024-01-06T05:03:00;20.80;39.80
35363;DHT22;21463;47.480;8.214;2024-01-06T05:04:02;20.80;39.80
35363;DHT22;21463;47.480;8.214;2024-01-06T05:05:09;20.80;39.80
35363;DHT22;21463;47.480;8.214;2024-01-06T05:06:14;20.80;39.80
35363;DHT22;21463;47.480;8.214;2024-01-06T05:07:17;20.80;39.80
35363;DHT22;21463;47.480;8.214;2024-01-06T05:08:19;20.80;39.80
35363;DHT22;21463;47.480;8.214;2024-01-06T05:09:27;20.80;39.80
35363;DHT22;21463;47.480;8.214;2024-01-06T05:10:30;20.80;39.80
35363;DHT22;21463;47.480;8.214;2024-01-06T05:11:32;20.80;39.80
35363;DHT22;21463;47.480;8.214;2024-01-06T05:12:35;20.80;39.80
35363;DHT22;21463;47.480;8.214;2024-01-06T05:13:38;20.70;39.80
35363;DHT22;21463;47.480;8.214;2024-01-06T05:14:41;20.80;39.80
35363;DHT22;21463;47.480;8.214;2024-01-06T05:15:44;20.80;39.80
35363;DHT22;21463;47.480;8.214;2024-01-06T05:16:47;20.80;39.80
35363;DHT22;21463;47.480;8.214;2024-01-06T05:17:50;20.80;39.80
35363;DHT22;21463;47.480;8.214;2024-01-06T05:18:53;20.80;39.80
35363;DHT22;21463;47.480;8.214;2024-01-06T05:19:56;20.80;39.80
35363;DHT22;21463;47.480;8.214;2024-01-06T05:20:59;20.80;39.80
35363;DHT22;21463;47.480;8.214;2024-01-06T05:22:05;20.80;39.80
35363;DHT22;21463;47.480;8.214;2024-01-06T05:23:07;20.80;39.80
35363;DHT22;21463;47.480;8.214;2024-01-06T05:24:12;20.80;39.80
35363;DHT22;21463;47.480;8.214;2024-01-06T05:25:20;20.80;39.80
35363;DHT22;21463;47.480;8.214;2024-01-06T05:26:23;20.80;39.80
35363;DHT22;21463;47.480;8.214;2024-01-06T05:27:41;20.80;39.80
35363;DHT22;21463;47.480;8.214;2024-01-06T05:28:44;20.80;39.80
35363;DHT22;21463;47.480;8.214;2024-01-06T05:29:46;20.80;39.80
35363;DHT22;21463;47.480;8.214;2024-01-06T05:30:51;20.80;39.80
35363;DHT22;21463;47.480;8.214;2024-01-06T05:31:56;20.80;39.80
35363;DHT22;21463;47.480;8.214;2024-01-06T05:32:58;20.80;39.70
35363;DHT22;21463;47.480;8.214;2024-01-06T05:34:01;20.80;39.80
35363;DHT22;21463;47.480;8.214;2024-01-06T05:35:07;20.80;39.80
35363;DHT22;21463;47.480;8.214;2024-01-06T05:36:10;20.80;39.80
35363;DHT22;21463;47.480;8.214;2024-01-06T05:37:12;20.80;39.80
35363;DHT22;21463;47.480;8.214;2024-01-06T05:38:15;20.90;39.80
35363;DHT22;21463;47.480;8.214;2024-01-06T05:39:19;20.80;39.80
35363;DHT22;21463;47.480;8.214;2024-01-06T05:40:22;20.80;39.80
35363;DHT22;21463;47.480;8.214;2024-01-06T05:41:27;20.80;39.70
35363;DHT22;21463;47.480;8.214;2024-01-06T05:42:30;20.80;39.80
35363;DHT22;21463;47.480;8.214;2024-01-06T05:43:33;20.80;39.80
35363;DHT22;21463;47.480;8.214;2024-01-06T05:44:36;20.80;39.80
35363;DHT22;21463;47.480;8.214;2024-01-06T05:45:42;20.80;39.70
35363;DHT22;21463;47.480;8.214;2024-01-06T05:46:45;20.80;39.70
35363;DHT22;21463;47.480;8.214;2024-01-06T05:47:48;20.80;39.70
35363;DHT22;21463;47.480;8.214;2024-01-06T05:48:53;20.80;39.80
35363;DHT22;21463;47.480;8.214;2024-01-06T05:50:01;20.80;39.70
35363;DHT22;21463;47.480;8.214;2024-01-06T05:51:04;20.80;39.70
35363;DHT22;21463;47.480;8.214;2024-01-06T05:52:08;20.80;39.70
35363;DHT22;21463;47.480;8.214;2024-01-06T05:53:11;20.80;40.30
35363;DHT22;21463;47.480;8.214;2024-01-06T05:54:13;20.70;39.60
35363;DHT22;21463;47.480;8.214;2024-01-06T05:55:16;20.80;39.70
35363;DHT22;21463;47.480;8.214;2024-01-06T05:56:25;20.80;39.70
35363;DHT22;21463;47.480;8.214;2024-01-06T05:57:28;20.80;39.70
35363;DHT22;21463;47.480;8.214;2024-01-06T05:58:32;20.80;39.70
35363;DHT22;21463;47.480;8.214;2024-01-06T05:59:35;20.80;39.70
35363;DHT22;21463;47.480;8.214;2024-01-06T06:00:37;20.80;39.70
35363;DHT22;21463;47.480;8.214;2024-01-06T06:01:41;20.80;39.70
35363;DHT22;21463;47.480;8.214;2024-01-06T06:02:44;20.80;39.70
35363;DHT22;21463;47.480;8.214;2024-01-06T06:03:47;20.80;39.70
35363;DHT22;21463;47.480;8.214;2024-01-06T06:04:51;20.80;39.70
35363;DHT22;21463;47.480;8.214;2024-01-06T06:05:53;20.80;39.70
35363;DHT22;21463;47.480;8.214;2024-01-06T06:06:56;20.80;39.70
35363;DHT22;21463;47.480;8.214;2024-01-06T06:08:03;20.80;39.70
35363;DHT22;21463;47.480;8.214;2024-01-06T06:09:06;20.80;39.70
35363;DHT22;21463;47.480;8.214;2024-01-06T06:10:11;20.80;39.70
35363;DHT22;21463;47.480;8.214;2024-01-06T06:11:15;20.80;39.60
35363;DHT22;21463;47.480;8.214;2024-01-06T06:12:17;20.80;39.70
35363;DHT22;21463;47.480;8.214;2024-01-06T06:13:20;20.80;39.70
35363;DHT22;21463;47.480;8.214;2024-01-06T06:14:22;20.80;39.60
35363;DHT22;21463;47.480;8.214;2024-01-06T06:15:29;20.80;39.70
35363;DHT22;21463;47.480;8.214;2024-01-06T06:16:35;20.80;39.60
35363;DHT22;21463;47.480;8.214;2024-01-06T06:17:39;20.80;39.60
35363;DHT22;21463;47.480;8.214;2024-01-06T06:18:42;20.80;39.60
35363;DHT22;21463;47.480;8.214;2024-01-06T06:19:46;20.70;39.60
35363;DHT22;21463;47.480;8.214;2024-01-06T06:20:49;20.80;39.60
35363;DHT22;21463;47.480;8.214;2024-01-06T06:21:52;20.80;39.60
35363;DHT22;21463;47.480;8.214;2024-01-06T06:22:55;20.80;39.60
35363;DHT22;21463;47.480;8.214;2024-01-06T06:23:58;20.80;39.60
35363;DHT22;21463;47.480;8.214;2024-01-06T06:25:00;20.80;39.60
35363;DHT22;21463;47.480;8.214;2024-01-06T06:26:07;20.80;39.60
35363;DHT22;21463;47.480;8.214;2024-01-06T06:27:13;20.80;39.60
35363;DHT22;21463;47.480;8.214;2024-01-06T06:28:16;20.80;39.60
35363;DHT22;21463;47.480;8.214;2024-01-06T06:29:21;20.80;39.60
35363;DHT22;21463;47.480;8.214;2024-01-06T06:30:23;20.80;39.60
35363;DHT22;21463;47.480;8.214;2024-01-06T06:31:26;20.80;39.60
35363;DHT22;21463;47.480;8.214;2024-01-06T06:32:29;20.80;39.60
35363;DHT22;21463;47.480;8.214;2024-01-06T06:33:32;20.80;39.60
35363;DHT22;21463;47.480;8.214;2024-01-06T06:34:39;20.80;39.60
35363;DHT22;21463;47.480;8.214;2024-01-06T06:35:44;20.80;39.60
35363;DHT22;21463;47.480;8.214;2024-01-06T06:36:47;20.80;39.60
35363;DHT22;21463;47.480;8.214;2024-01-06T06:37:51;20.80;39.60
35363;DHT22;21463;47.480;8.214;2024-01-06T06:38:53;20.80;39.50
35363;DHT22;21463;47.480;8.214;2024-01-06T06:39:56;20.80;39.50
35363;DHT22;21463;47.480;8.214;2024-01-06T06:41:01;20.80;39.60